Flight Track Log - Related Links

Times and Time Zones

All times are in EST time to prevent confusion due to time zone crossing. See the EJA829P flight status page for this flight to view local times or setup timezone preferences in your user account.


Time Position Orientation Groundspeed Altitude Reporting Facility
EST Latitude Longitude Course Direction KTS MPH feet Rate Location/Type
Wed 08:40:44 PM 40.7714 -74.1606 225° Southwest 206 237 4,800  Level New York Center
Wed 08:41:30 PM 40.7167 -74.1833 198° South 270 311 7,800 2,774 Climbing New York TRACON
Wed 08:42:30 PM 40.6500 -74.2333 210° Southwest 286 329 9,700 2,650 Climbing New York TRACON
Wed 08:43:30 PM 40.5667 -74.2667 197° South 319 367 13,100 3,400 Climbing New York TRACON
Wed 08:44:30 PM 40.4667 -74.2333 166° South 362 417 16,500 1,746 Climbing New York TRACON
Wed 08:45:00 PM 40.3333 -74.5912 225° Southwest  Level Estimated
Wed 08:45:44 PM 40.3478 -74.1806 161° South 376 433 17,000  Level New York Center
Wed 08:46:44 PM 40.2625 -74.1789 179° South 378 435 17,000  Level New York Center
Wed 08:47:44 PM 40.1531 -74.2117 193° South 382 440 17,000  Level New York Center
Wed 08:48:44 PM 40.0500 -74.2392 192° South 391 450 17,000 50 Level New York Center
Wed 08:49:44 PM 39.9567 -74.3022 207° Southwest 358 412 17,100 3,500 Climbing New York Center
Wed 08:50:44 PM 39.8900 -74.3636 215° Southwest 358 412 24,000 2,300 Climbing New York Center
Wed 08:51:44 PM 39.8019 -74.4511 217° Southwest 364 419 21,700  Descending New York Center
Wed 08:53:09 PM 39.7008 -74.5856 226° Southwest 366 421 24,000 952 Climbing Washington Center
Wed 08:54:09 PM 39.6247 -74.6836 225° Southwest 379 436 24,000  Level Washington Center
Wed 08:55:08 PM 39.5275 -74.7764 216° Southwest 391 450 24,000  Level Washington Center
Wed 08:56:09 PM 39.4133 -74.8447 205° Southwest 422 486 24,000  Level Washington Center
Wed 08:57:10 PM 39.3053 -74.9156 207° Southwest 432 497 24,000  Level Washington Center
Wed 08:58:08 PM 39.1931 -74.9864 206° Southwest 443 510 24,000  Level Washington Center
Wed 08:59:08 PM 39.0850 -75.0542 206° Southwest 443 510 24,000  Level Washington Center
Wed 09:00:10 PM 38.9728 -75.1244 206° Southwest 443 510 24,000  Level Washington Center
Wed 09:01:10 PM 38.8583 -75.1944 205° Southwest 443 510 24,000  Level Washington Center
Wed 09:02:09 PM 38.7481 -75.2617 205° Southwest 443 510 24,000  Level Washington Center
Wed 09:03:10 PM 38.6358 -75.3339 207° Southwest 443 510 24,000  Level Washington Center
Wed 09:04:11 PM 38.5253 -75.4033 206° Southwest 443 510 24,000  Level Washington Center
Wed 09:05:08 PM 38.4169 -75.4725 207° Southwest 443 510 24,000  Level Washington Center
Wed 09:06:09 PM 38.3086 -75.5389 206° Southwest 443 510 24,000  Level Washington Center
Wed 09:07:09 PM 38.2106 -75.5892 202° Southwest 437 503 24,000  Level Washington Center
Wed 09:08:10 PM 38.1042 -75.6603 208° Southwest 437 503 24,000 -50 Level Washington Center
Wed 09:09:10 PM 37.9958 -75.7289 207° Southwest 437 503 23,900 -1,068 Descending Washington Center
Wed 09:10:08 PM 37.8894 -75.7997 208° Southwest 437 503 21,900 -2,155 Descending Washington Center
Wed 09:10:53 PM 37.8036 -75.8467 203° Southwest 416 479 20,200 -2,000 Descending Washington Center
Wed 09:11:08 PM 37.7828 -75.8544 196° South 431 496 19,900 -2,182 Descending Washington Center
Wed 09:11:48 PM 37.7097 -75.9042 208° Southwest 406 467 18,200 -1,770 Descending Washington Center
Wed 09:12:09 PM 37.6847 -75.9197 206° Southwest 413 475 18,100 -1,525 Descending Washington Center
Wed 09:12:47 PM 37.6094 -75.9614 204° Southwest 395 455 16,700 -1,729 Descending Washington Center
Wed 09:13:08 PM 37.5886 -75.9769 211° Southwest 402 463 16,400 -689 Descending Washington Center
Wed 09:13:48 PM 37.5175 -76.0211 206° Southwest 373 429 16,000 -393 Descending Washington Center
Wed 09:14:09 PM 37.4944 -76.0367 208° Southwest 388 447 16,000 -98 Level Washington Center
Wed 09:14:49 PM 37.4214 -76.0833 207° Southwest 366 421 15,900 -1,017 Descending Washington Center
Wed 09:15:08 PM 37.4025 -76.0939 204° Southwest 378 435 15,000 -3,049 Descending Washington Center
Wed 09:15:50 PM 37.3336 -76.1378 207° Southwest 341 392 12,800 -2,800 Descending Washington Center
Wed 09:16:08 PM 37.3189 -76.1481 209° Southwest 363 418 12,200 -2,800 Descending Washington Center
Wed 09:16:50 PM 37.2581 -76.1947 211° Southwest 306 352 10,000 -2,500 Descending Washington Center
Wed 09:17:08 PM 37.2478 -76.2050 219° Southwest 339 390 9,700 -2,262 Descending Washington Center
Wed 09:17:51 PM 37.2117 -76.2778 238° Southwest 271 312 7,700 -2,164 Descending Washington Center
Wed 09:18:09 PM 37.2056 -76.2856 225° Southwest 298 343 7,500 -1,325 Descending Washington Center
Wed 09:19:08 PM 37.2008 -76.3714 266° West 251 289 6,000 -750 Descending Washington Center
Wed 09:20:09 PM 37.2147 -76.4525 282° West 243 280 6,000  Level Washington Center
Wed 09:22:30 PM 37.2500 -76.6500 283° West 230 265 6,000  Level Potomac TRACON
Wed 09:23:24 PM 37.2667 -76.7167 287° West 235 270 6,000  Level Potomac TRACON
Wed 09:24:24 PM 37.2833 -76.8000 284° West 240 276 6,000  Level Potomac TRACON
Wed 09:25:18 PM 37.2833 -76.8833 270° West 241 277 6,000  Level Potomac TRACON
Wed 09:26:18 PM 37.2833 -76.9667 270° West 243 280 6,000 -333 Level Potomac TRACON
Wed 09:27:24 PM 37.3000 -77.0500 284° West 247 284 5,300 -1,438 Descending Potomac TRACON
Wed 09:28:19 PM 37.3167 -77.1333 284° West 238 274 3,100 -1,211 Descending Potomac TRACON
Wed 09:29:18 PM 37.3500 -77.1833 310° West 200 230 3,000 -151 Descending Potomac TRACON
Wed 09:30:18 PM 37.3667 -77.2500 287° West 177 204 2,800 -522 Descending Potomac TRACON
Wed 09:31:13 PM 37.3833 -77.3000 293° West 191 220 2,000 -417 Descending Potomac TRACON
Wed 09:32:13 PM 37.4000 -77.3333 302° West 115 132 2,000 -150 Level Potomac TRACON
Wed 09:33:13 PM 37.4333 -77.3500 338° Northwest 133 153 1,700 -496 Descending Potomac TRACON
Wed 09:34:14 PM 37.4667 -77.3333 22° Northeast 121 139 1,000 -689 Descending Potomac TRACON

Login

Don't have an account? Register now (free) for customized features, flight alerts, and more!